sensor_id;sensor_type;location;lat;lon;timestamp;pressure;altitude;pressure_sealevel;temperature;humidity
4576;BME280;2300;51.874;8.430;2023-03-26T00:00:19;99801.06;;;7.56;100.00
4576;BME280;2300;51.874;8.430;2023-03-26T00:02:46;99796.53;;;7.50;100.00
4576;BME280;2300;51.874;8.430;2023-03-26T00:05:12;99796.88;;;7.53;100.00
4576;BME280;2300;51.874;8.430;2023-03-26T00:07:39;99797.81;;;7.47;100.00
4576;BME280;2300;51.874;8.430;2023-03-26T00:10:08;99801.06;;;7.56;100.00
4576;BME280;2300;51.874;8.430;2023-03-26T00:12:35;99802.13;;;7.55;100.00
4576;BME280;2300;51.874;8.430;2023-03-26T00:15:01;99799.75;;;7.58;100.00
4576;BME280;2300;51.874;8.430;2023-03-26T00:17:28;99810.78;;;7.63;100.00
4576;BME280;2300;51.874;8.430;2023-03-26T00:19:55;99814.97;;;7.66;100.00
4576;BME280;2300;51.874;8.430;2023-03-26T00:22:21;99813.06;;;7.66;100.00
4576;BME280;2300;51.874;8.430;2023-03-26T00:24:48;99814.72;;;7.67;100.00
4576;BME280;2300;51.874;8.430;2023-03-26T00:27:16;99814.31;;;7.52;100.00
4576;BME280;2300;51.874;8.430;2023-03-26T00:29:43;99819.81;;;7.64;100.00
4576;BME280;2300;51.874;8.430;2023-03-26T00:32:12;99824.25;;;7.76;100.00
4576;BME280;2300;51.874;8.430;2023-03-26T00:34:39;99827.13;;;7.81;100.00
4576;BME280;2300;51.874;8.430;2023-03-26T00:37:06;99826.38;;;7.74;100.00
4576;BME280;2300;51.874;8.430;2023-03-26T00:39:33;99816.13;;;7.58;100.00
4576;BME280;2300;51.874;8.430;2023-03-26T00:42:01;99820.31;;;7.61;100.00
4576;BME280;2300;51.874;8.430;2023-03-26T00:44:32;99828.38;;;7.67;100.00
4576;BME280;2300;51.874;8.430;2023-03-26T00:46:59;99822.34;;;7.65;100.00
4576;BME280;2300;51.874;8.430;2023-03-26T00:49:25;99829.22;;;7.68;100.00
4576;BME280;2300;51.874;8.430;2023-03-26T00:51:55;99829.00;;;7.69;100.00
4576;BME280;2300;51.874;8.430;2023-03-26T00:54:21;99829.91;;;7.63;100.00
4576;BME280;2300;51.874;8.430;2023-03-26T00:56:48;99827.53;;;7.55;100.00
4576;BME280;2300;51.874;8.430;2023-03-26T00:59:14;99824.59;;;7.68;100.00
4576;BME280;2300;51.874;8.430;2023-03-26T01:01:42;99825.78;;;7.61;100.00
4576;BME280;2300;51.874;8.430;2023-03-26T01:04:23;99824.41;;;7.81;100.00
4576;BME280;2300;51.874;8.430;2023-03-26T01:06:52;99827.31;;;7.68;100.00
4576;BME280;2300;51.874;8.430;2023-03-26T01:09:20;99823.03;;;7.72;100.00
4576;BME280;2300;51.874;8.430;2023-03-26T01:11:48;99826.97;;;7.65;100.00
4576;BME280;2300;51.874;8.430;2023-03-26T01:14:17;99834.19;;;7.59;100.00
4576;BME280;2300;51.874;8.430;2023-03-26T01:16:49;99834.38;;;7.76;100.00
4576;BME280;2300;51.874;8.430;2023-03-26T01:19:20;99832.22;;;7.66;100.00
4576;BME280;2300;51.874;8.430;2023-03-26T01:21:49;99822.06;;;7.55;100.00
4576;BME280;2300;51.874;8.430;2023-03-26T01:24:16;99832.53;;;7.58;100.00
4576;BME280;2300;51.874;8.430;2023-03-26T01:26:58;99828.47;;;7.49;100.00
4576;BME280;2300;51.874;8.430;2023-03-26T01:29:32;99828.38;;;7.56;100.00
4576;BME280;2300;51.874;8.430;2023-03-26T01:32:07;99819.81;;;7.64;100.00
4576;BME280;2300;51.874;8.430;2023-03-26T01:34:46;99817.31;;;7.62;100.00
4576;BME280;2300;51.874;8.430;2023-03-26T01:37:20;99816.88;;;7.65;100.00
4576;BME280;2300;51.874;8.430;2023-03-26T01:39:53;99819.34;;;7.55;100.00
4576;BME280;2300;51.874;8.430;2023-03-26T01:42:27;99817.94;;;7.64;100.00
4576;BME280;2300;51.874;8.430;2023-03-26T01:44:58;99816.66;;;7.67;100.00
4576;BME280;2300;51.874;8.430;2023-03-26T01:47:26;99813.19;;;7.60;100.00
4576;BME280;2300;51.874;8.430;2023-03-26T01:49:53;99808.19;;;7.68;100.00
4576;BME280;2300;51.874;8.430;2023-03-26T01:52:21;99805.47;;;7.68;100.00
4576;BME280;2300;51.874;8.430;2023-03-26T01:54:52;99800.00;;;7.68;100.00
4576;BME280;2300;51.874;8.430;2023-03-26T01:57:25;99802.16;;;7.66;100.00
4576;BME280;2300;51.874;8.430;2023-03-26T02:00:05;99788.09;;;7.51;100.00
4576;BME280;2300;51.874;8.430;2023-03-26T02:02:41;99795.00;;;7.65;100.00
4576;BME280;2300;51.874;8.430;2023-03-26T02:05:16;99801.31;;;7.66;100.00
4576;BME280;2300;51.874;8.430;2023-03-26T02:07:49;99799.16;;;7.68;100.00
4576;BME280;2300;51.874;8.430;2023-03-26T02:10:23;99789.66;;;7.59;100.00
4576;BME280;2300;51.874;8.430;2023-03-26T02:12:52;99790.00;;;7.62;100.00
4576;BME280;2300;51.874;8.430;2023-03-26T02:15:19;99782.75;;;7.56;100.00
4576;BME280;2300;51.874;8.430;2023-03-26T02:17:46;99777.88;;;7.58;100.00
4576;BME280;2300;51.874;8.430;2023-03-26T02:20:14;99772.41;;;7.58;100.00
4576;BME280;2300;51.874;8.430;2023-03-26T02:22:43;99762.69;;;7.62;100.00
4576;BME280;2300;51.874;8.430;2023-03-26T02:25:12;99772.34;;;7.76;100.00
4576;BME280;2300;51.874;8.430;2023-03-26T02:27:42;99768.66;;;7.82;100.00
4576;BME280;2300;51.874;8.430;2023-03-26T02:30:12;99769.47;;;7.83;100.00
4576;BME280;2300;51.874;8.430;2023-03-26T02:32:39;99770.31;;;7.83;100.00
4576;BME280;2300;51.874;8.430;2023-03-26T02:35:08;99765.94;;;7.82;100.00
4576;BME280;2300;51.874;8.430;2023-03-26T02:37:35;99761.66;;;7.86;100.00
4576;BME280;2300;51.874;8.430;2023-03-26T02:40:02;99759.03;;;7.92;100.00
4576;BME280;2300;51.874;8.430;2023-03-26T02:42:34;99766.41;;;7.91;100.00
4576;BME280;2300;51.874;8.430;2023-03-26T02:45:03;99760.47;;;7.82;100.00
4576;BME280;2300;51.874;8.430;2023-03-26T02:47:29;99750.94;;;7.73;100.00
4576;BME280;2300;51.874;8.430;2023-03-26T02:49:57;99748.94;;;7.80;100.00
4576;BME280;2300;51.874;8.430;2023-03-26T02:52:26;99749.53;;;7.82;100.00
4576;BME280;2300;51.874;8.430;2023-03-26T02:54:52;99749.66;;;7.87;100.00
4576;BME280;2300;51.874;8.430;2023-03-26T02:57:19;99753.44;;;7.86;100.00
4576;BME280;2300;51.874;8.430;2023-03-26T02:59:46;99744.66;;;7.84;100.00
4576;BME280;2300;51.874;8.430;2023-03-26T03:02:15;99743.22;;;7.82;100.00
4576;BME280;2300;51.874;8.430;2023-03-26T03:04:42;99739.78;;;7.86;100.00
4576;BME280;2300;51.874;8.430;2023-03-26T03:07:09;99733.72;;;7.84;100.00
4576;BME280;2300;51.874;8.430;2023-03-26T03:09:38;99731.81;;;7.97;100.00
4576;BME280;2300;51.874;8.430;2023-03-26T03:12:05;99735.00;;;7.94;100.00
4576;BME280;2300;51.874;8.430;2023-03-26T03:14:31;99721.34;;;7.94;100.00
4576;BME280;2300;51.874;8.430;2023-03-26T03:16:58;99719.22;;;7.96;100.00
4576;BME280;2300;51.874;8.430;2023-03-26T03:19:26;99719.69;;;7.93;100.00
4576;BME280;2300;51.874;8.430;2023-03-26T03:21:52;99709.56;;;7.93;100.00
4576;BME280;2300;51.874;8.430;2023-03-26T03:24:18;99710.66;;;7.92;100.00
4576;BME280;2300;51.874;8.430;2023-03-26T03:26:45;99721.34;;;7.94;100.00
4576;BME280;2300;51.874;8.430;2023-03-26T03:29:11;99724.44;;;7.85;100.00
4576;BME280;2300;51.874;8.430;2023-03-26T03:31:38;99714.22;;;7.93;100.00
4576;BME280;2300;51.874;8.430;2023-03-26T03:34:05;99711.13;;;8.01;100.00
4576;BME280;2300;51.874;8.430;2023-03-26T03:36:33;99715.91;;;7.82;100.00
4576;BME280;2300;51.874;8.430;2023-03-26T03:39:02;99724.44;;;7.85;100.00
4576;BME280;2300;51.874;8.430;2023-03-26T03:41:31;99716.72;;;7.94;100.00
4576;BME280;2300;51.874;8.430;2023-03-26T03:43:57;99724.34;;;7.92;100.00
4576;BME280;2300;51.874;8.430;2023-03-26T03:46:25;99720.88;;;7.97;100.00
4576;BME280;2300;51.874;8.430;2023-03-26T03:48:52;99714.47;;;7.79;100.00
4576;BME280;2300;51.874;8.430;2023-03-26T03:51:18;99708.75;;;7.81;100.00
4576;BME280;2300;51.874;8.430;2023-03-26T03:53:46;99683.94;;;7.71;100.00
4576;BME280;2300;51.874;8.430;2023-03-26T03:56:13;99712.34;;;7.81;100.00
4576;BME280;2300;51.874;8.430;2023-03-26T03:58:43;99708.53;;;7.82;100.00
4576;BME280;2300;51.874;8.430;2023-03-26T04:01:11;99696.75;;;7.70;100.00
4576;BME280;2300;51.874;8.430;2023-03-26T04:03:39;99695.81;;;7.76;100.00
4576;BME280;2300;51.874;8.430;2023-03-26T04:06:06;99693.91;;;7.77;100.00
4576;BME280;2300;51.874;8.430;2023-03-26T04:08:35;99692.81;;;7.78;100.00
4576;BME280;2300;51.874;8.430;2023-03-26T04:11:03;99688.31;;;7.83;100.00
4576;BME280;2300;51.874;8.430;2023-03-26T04:13:30;99685.22;;;7.92;100.00
4576;BME280;2300;51.874;8.430;2023-03-26T04:15:56;99689.41;;;7.82;100.00
4576;BME280;2300;51.874;8.430;2023-03-26T04:18:23;99679.75;;;7.80;100.00
4576;BME280;2300;51.874;8.430;2023-03-26T04:20:50;99687.84;;;7.86;100.00
4576;BME280;2300;51.874;8.430;2023-03-26T04:23:18;99675.03;;;7.75;100.00
4576;BME280;2300;51.874;8.430;2023-03-26T04:25:47;99678.09;;;7.91;100.00
4576;BME280;2300;51.874;8.430;2023-03-26T04:28:31;99672.63;;;7.91;100.00
4576;BME280;2300;51.874;8.430;2023-03-26T04:31:00;99673.81;;;7.95;100.00
4576;BME280;2300;51.874;8.430;2023-03-26T04:33:28;99673.47;;;7.91;100.00
4576;BME280;2300;51.874;8.430;2023-03-26T04:35:56;99674.63;;;7.95;100.00
4576;BME280;2300;51.874;8.430;2023-03-26T04:38:27;99669.50;;;7.99;100.00
4576;BME280;2300;51.874;8.430;2023-03-26T04:40:54;99672.13;;;7.94;100.00
4576;BME280;2300;51.874;8.430;2023-03-26T04:43:25;99671.56;;;7.92;100.00
4576;BME280;2300;51.874;8.430;2023-03-26T04:45:53;99669.50;;;7.99;100.00
4576;BME280;2300;51.874;8.430;2023-03-26T04:48:19;99663.25;;;7.86;100.00
4576;BME280;2300;51.874;8.430;2023-03-26T04:50:46;99658.47;;;7.94;100.00
4576;BME280;2300;51.874;8.430;2023-03-26T04:53:15;99660.13;;;7.95;100.00
4576;BME280;2300;51.874;8.430;2023-03-26T04:55:45;99657.06;;;8.03;100.00
4576;BME280;2300;51.874;8.430;2023-03-26T04:58:13;99657.50;;;8.00;100.00
4576;BME280;2300;51.874;8.430;2023-03-26T05:00:41;99658.00;;;7.97;100.00
4576;BME280;2300;51.874;8.430;2023-03-26T05:03:08;99648.97;;;7.96;100.00
4576;BME280;2300;51.874;8.430;2023-03-26T05:05:36;99651.38;;;7.93;100.00
4576;BME280;2300;51.874;8.430;2023-03-26T05:08:02;99647.31;;;7.95;99.55
4576;BME280;2300;51.874;8.430;2023-03-26T05:10:29;99643.63;;;7.89;100.00
4576;BME280;2300;51.874;8.430;2023-03-26T05:12:56;99643.16;;;7.93;100.00
4576;BME280;2300;51.874;8.430;2023-03-26T05:15:22;99636.03;;;7.92;100.00
4576;BME280;2300;51.874;8.430;2023-03-26T05:17:50;99631.72;;;7.96;99.70
4576;BME280;2300;51.874;8.430;2023-03-26T05:20:19;99635.19;;;7.91;99.83
4576;BME280;2300;51.874;8.430;2023-03-26T05:22:46;99632.91;;;8.00;99.64
4576;BME280;2300;51.874;8.430;2023-03-26T05:25:13;99628.41;;;7.94;99.53
4576;BME280;2300;51.874;8.430;2023-03-26T05:27:39;99630.06;;;7.83;99.37
4576;BME280;2300;51.874;8.430;2023-03-26T05:30:07;99630.44;;;7.86;99.46
4576;BME280;2300;51.874;8.430;2023-03-26T05:32:34;99623.09;;;7.87;99.92
4576;BME280;2300;51.874;8.430;2023-03-26T05:35:04;99624.38;;;7.84;99.95
4576;BME280;2300;51.874;8.430;2023-03-26T05:37:31;99623.31;;;7.85;100.00
4576;BME280;2300;51.874;8.430;2023-03-26T05:39:58;99620.59;;;7.85;100.00
4576;BME280;2300;51.874;8.430;2023-03-26T05:42:24;99617.50;;;7.82;100.00
4576;BME280;2300;51.874;8.430;2023-03-26T05:44:51;99613.66;;;7.95;100.00
4576;BME280;2300;51.874;8.430;2023-03-26T05:47:18;99615.47;;;7.89;100.00
4576;BME280;2300;51.874;8.430;2023-03-26T05:49:44;99614.38;;;8.02;99.85
4576;BME280;2300;51.874;8.430;2023-03-26T05:52:12;99613.16;;;8.09;99.49
4576;BME280;2300;51.874;8.430;2023-03-26T05:54:43;99608.41;;;8.05;98.92
4576;BME280;2300;51.874;8.430;2023-03-26T05:57:09;99603.91;;;7.99;98.99
4576;BME280;2300;51.874;8.430;2023-03-26T05:59:35;99603.34;;;7.97;99.35
4576;BME280;2300;51.874;8.430;2023-03-26T06:02:02;99592.84;;;8.05;99.61
4576;BME280;2300;51.874;8.430;2023-03-26T06:04:28;99591.16;;;8.04;98.90
4576;BME280;2300;51.874;8.430;2023-03-26T06:06:56;99556.44;;;7.76;99.30
4576;BME280;2300;51.874;8.430;2023-03-26T06:09:24;99590.59;;;8.02;99.30
4576;BME280;2300;51.874;8.430;2023-03-26T06:11:50;99590.22;;;8.10;99.44
4576;BME280;2300;51.874;8.430;2023-03-26T06:14:17;99587.44;;;8.22;98.75
4576;BME280;2300;51.874;8.430;2023-03-26T06:16:43;99582.31;;;8.25;98.61
4576;BME280;2300;51.874;8.430;2023-03-26T06:19:10;99586.16;;;8.41;97.82
4576;BME280;2300;51.874;8.430;2023-03-26T06:21:36;99577.22;;;8.46;98.05
4576;BME280;2300;51.874;8.430;2023-03-26T06:24:03;99572.41;;;8.36;96.87
4576;BME280;2300;51.874;8.430;2023-03-26T06:26:31;99576.88;;;8.42;97.08
4576;BME280;2300;51.874;8.430;2023-03-26T06:28:57;99577.72;;;8.43;96.65
4576;BME280;2300;51.874;8.430;2023-03-26T06:31:24;99573.56;;;8.40;96.80
4576;BME280;2300;51.874;8.430;2023-03-26T06:33:51;99565.94;;;8.42;96.53
4576;BME280;2300;51.874;8.430;2023-03-26T06:36:17;99568.91;;;8.41;95.50
4576;BME280;2300;51.874;8.430;2023-03-26T06:38:44;99568.88;;;8.52;95.62
4576;BME280;2300;51.874;8.430;2023-03-26T06:41:11;99571.09;;;8.55;94.83
4576;BME280;2300;51.874;8.430;2023-03-26T06:43:38;99567.38;;;8.61;95.07
4576;BME280;2300;51.874;8.430;2023-03-26T06:46:05;99568.13;;;8.57;94.48
4576;BME280;2300;51.874;8.430;2023-03-26T06:48:32;99564.91;;;8.60;93.82
4576;BME280;2300;51.874;8.430;2023-03-26T06:50:58;99567.06;;;8.58;94.51
4576;BME280;2300;51.874;8.430;2023-03-26T06:53:25;99566.44;;;8.67;93.54
4576;BME280;2300;51.874;8.430;2023-03-26T06:55:51;99570.34;;;8.71;93.43
4576;BME280;2300;51.874;8.430;2023-03-26T06:58:19;99574.50;;;8.91;93.62
4576;BME280;2300;51.874;8.430;2023-03-26T07:00:47;99560.91;;;8.96;92.94
4576;BME280;2300;51.874;8.430;2023-03-26T07:03:13;99573.19;;;9.10;92.92
4576;BME280;2300;51.874;8.430;2023-03-26T07:05:41;99520.84;;;8.90;92.07
4576;BME280;2300;51.874;8.430;2023-03-26T07:08:08;99554.09;;;8.98;92.03
4576;BME280;2300;51.874;8.430;2023-03-26T07:10:34;99554.19;;;9.03;91.68
4576;BME280;2300;51.874;8.430;2023-03-26T07:13:01;99549.03;;;9.07;91.86
4576;BME280;2300;51.874;8.430;2023-03-26T07:15:27;99547.88;;;9.03;92.18
4576;BME280;2300;51.874;8.430;2023-03-26T07:17:55;99544.22;;;8.97;91.28
4576;BME280;2300;51.874;8.430;2023-03-26T07:20:22;99537.66;;;8.98;90.95
4576;BME280;2300;51.874;8.430;2023-03-26T07:22:49;99534.34;;;8.80;91.74
4576;BME280;2300;51.874;8.430;2023-03-26T07:25:17;99539.00;;;8.96;91.47
4576;BME280;2300;51.874;8.430;2023-03-26T07:27:50;99533.69;;;8.72;92.46
4576;BME280;2300;51.874;8.430;2023-03-26T07:30:24;99531.53;;;8.75;92.77
4576;BME280;2300;51.874;8.430;2023-03-26T07:32:58;99531.81;;;8.61;92.25
4576;BME280;2300;51.874;8.430;2023-03-26T07:35:29;99528.81;;;8.75;93.32
4576;BME280;2300;51.874;8.430;2023-03-26T07:38:09;99526.72;;;8.82;93.16
4576;BME280;2300;51.874;8.430;2023-03-26T07:40:51;99523.56;;;8.90;92.89
4576;BME280;2300;51.874;8.430;2023-03-26T07:43:31;99522.22;;;8.92;92.62
4576;BME280;2300;51.874;8.430;2023-03-26T07:46:03;99519.00;;;9.12;92.62
4576;BME280;2300;51.874;8.430;2023-03-26T07:48:39;99525.13;;;9.19;92.41
4576;BME280;2300;51.874;8.430;2023-03-26T07:51:11;99523.22;;;9.20;91.57
4576;BME280;2300;51.874;8.430;2023-03-26T07:53:38;99513.91;;;9.21;91.28
4576;BME280;2300;51.874;8.430;2023-03-26T07:56:09;99517.84;;;9.46;91.12
4576;BME280;2300;51.874;8.430;2023-03-26T07:58:58;99518.91;;;9.45;90.68
4576;BME280;2300;51.874;8.430;2023-03-26T08:01:40;99524.53;;;9.55;89.57
4576;BME280;2300;51.874;8.430;2023-03-26T08:04:33;99520.72;;;9.56;90.07
4576;BME280;2300;51.874;8.430;2023-03-26T08:07:07;99510.69;;;9.45;89.23
4576;BME280;2300;51.874;8.430;2023-03-26T08:09:42;99517.59;;;9.70;89.83
4576;BME280;2300;51.874;8.430;2023-03-26T08:12:16;99505.31;;;9.72;90.22
4576;BME280;2300;51.874;8.430;2023-03-26T08:14:52;99501.91;;;9.65;89.37
4576;BME280;2300;51.874;8.430;2023-03-26T08:17:26;99502.31;;;9.74;89.32
4576;BME280;2300;51.874;8.430;2023-03-26T08:20:03;99500.13;;;9.97;88.95
4576;BME280;2300;51.874;8.430;2023-03-26T08:22:37;99494.88;;;9.96;88.24
4576;BME280;2300;51.874;8.430;2023-03-26T08:25:26;99502.38;;;10.27;88.52
4576;BME280;2300;51.874;8.430;2023-03-26T08:28:07;99505.09;;;10.49;87.37
4576;BME280;2300;51.874;8.430;2023-03-26T08:30:36;99494.16;;;10.54;86.51
4576;BME280;2300;51.874;8.430;2023-03-26T08:33:11;99493.59;;;10.89;85.33
4576;BME280;2300;51.874;8.430;2023-03-26T08:35:42;99489.34;;;11.03;84.26
4576;BME280;2300;51.874;8.430;2023-03-26T08:38:09;99495.41;;;11.10;84.21
4576;BME280;2300;51.874;8.430;2023-03-26T08:41:14;99491.91;;;11.20;82.87
4576;BME280;2300;51.874;8.430;2023-03-26T08:44:02;99484.50;;;11.20;82.94
4576;BME280;2300;51.874;8.430;2023-03-26T08:47:00;99487.03;;;10.90;83.53
4576;BME280;2300;51.874;8.430;2023-03-26T08:49:55;99476.53;;;10.82;84.12
4576;BME280;2300;51.874;8.430;2023-03-26T08:55:51;99474.00;;;11.12;83.69
4576;BME280;2300;51.874;8.430;2023-03-26T08:58:42;99471.84;;;11.19;83.10
4576;BME280;2300;51.874;8.430;2023-03-26T09:01:37;99479.09;;;11.41;82.75
4576;BME280;2300;51.874;8.430;2023-03-26T09:10:18;99462.03;;;10.87;81.99
4576;BME280;2300;51.874;8.430;2023-03-26T09:16:20;99462.91;;;10.92;82.63
4576;BME280;2300;51.874;8.430;2023-03-26T09:19:13;99456.44;;;11.13;82.55
4576;BME280;2300;51.874;8.430;2023-03-26T09:22:20;99451.47;;;11.10;
4576;BME280;2300;51.874;8.430;2023-03-26T09:25:14;99457.66;;;11.38;81.25
4576;BME280;2300;51.874;8.430;2023-03-26T09:27:58;99449.34;;;11.22;79.88
4576;BME280;2300;51.874;8.430;2023-03-26T09:30:46;99449.22;;;11.02;80.83
4576;BME280;2300;51.874;8.430;2023-03-26T09:33:30;99452.00;;;11.07;80.31
4576;BME280;2300;51.874;8.430;2023-03-26T09:36:38;99453.53;;;11.35;78.76
4576;BME280;2300;51.874;8.430;2023-03-26T09:39:16;99449.84;;;11.19;79.60
4576;BME280;2300;51.874;8.430;2023-03-26T09:41:51;99442.69;;;11.08;80.09
4576;BME280;2300;51.874;8.430;2023-03-26T09:44:57;99449.16;;;10.92;80.63
4576;BME280;2300;51.874;8.430;2023-03-26T09:47:52;99441.41;;;10.84;79.42
4576;BME280;2300;51.874;8.430;2023-03-26T09:50:32;99444.72;;;10.86;78.86
4576;BME280;2300;51.874;8.430;2023-03-26T09:53:17;99446.59;;;10.80;79.69
4576;BME280;2300;51.874;8.430;2023-03-26T09:56:05;99449.59;;;10.79;79.64
4576;BME280;2300;51.874;8.430;2023-03-26T10:01:37;99434.19;;;10.36;81.20
4576;BME280;2300;51.874;8.430;2023-03-26T10:07:18;99429.81;;;10.40;82.71
4576;BME280;2300;51.874;8.430;2023-03-26T10:09:53;99437.41;;;10.33;83.30
4576;BME280;2300;51.874;8.430;2023-03-26T10:12:29;99436.00;;;10.25;84.59
4576;BME280;2300;51.874;8.430;2023-03-26T10:15:11;99439.66;;;10.09;84.62
4576;BME280;2300;51.874;8.430;2023-03-26T10:17:53;99430.34;;;10.10;84.71
4576;BME280;2300;51.874;8.430;2023-03-26T10:20:48;99430.84;;;10.07;85.02
4576;BME280;2300;51.874;8.430;2023-03-26T10:23:28;99434.75;;;10.16;86.38
4576;BME280;2300;51.874;8.430;2023-03-26T10:26:07;99422.91;;;10.11;85.68
4576;BME280;2300;51.874;8.430;2023-03-26T10:28:57;99434.88;;;10.26;85.37
4576;BME280;2300;51.874;8.430;2023-03-26T10:31:46;99427.25;;;10.07;84.10
4576;BME280;2300;51.874;8.430;2023-03-26T10:34:43;99433.72;;;10.22;84.49
4576;BME280;2300;51.874;8.430;2023-03-26T10:37:18;99443.88;;;10.49;85.67
4576;BME280;2300;51.874;8.430;2023-03-26T10:40:03;99418.31;;;10.43;85.10
4576;BME280;2300;51.874;8.430;2023-03-26T10:46:02;99425.91;;;10.68;85.50
4576;BME280;2300;51.874;8.430;2023-03-26T10:48:51;99428.25;;;10.86;84.67
4576;BME280;2300;51.874;8.430;2023-03-26T10:51:30;99432.91;;;10.85;82.48
4576;BME280;2300;51.874;8.430;2023-03-26T10:54:02;99444.59;;;10.71;83.25
4576;BME280;2300;51.874;8.430;2023-03-26T10:56:33;99425.91;;;10.68;85.13
4576;BME280;2300;51.874;8.430;2023-03-26T10:59:05;99432.91;;;10.85;87.05
4576;BME280;2300;51.874;8.430;2023-03-26T11:01:40;99440.47;;;11.10;85.33
4576;BME280;2300;51.874;8.430;2023-03-26T11:04:19;99422.94;;;11.16;84.34
4576;BME280;2300;51.874;8.430;2023-03-26T11:06:54;99426.50;;;11.17;83.83
4576;BME280;2300;51.874;8.430;2023-03-26T11:09:32;99410.78;;;11.02;86.07
4576;BME280;2300;51.874;8.430;2023-03-26T11:12:06;99430.53;;;11.04;85.84
4576;BME280;2300;51.874;8.430;2023-03-26T11:14:42;99432.47;;;10.62;84.31
4576;BME280;2300;51.874;8.430;2023-03-26T11:17:17;99397.00;;;10.23;85.23
4576;BME280;2300;51.874;8.430;2023-03-26T11:19:53;99432.00;;;9.84;84.15
4576;BME280;2300;51.874;8.430;2023-03-26T11:22:27;99426.13;;;9.54;85.01
4576;BME280;2300;51.874;8.430;2023-03-26T11:25:25;99427.53;;;9.35;85.09
4576;BME280;2300;51.874;8.430;2023-03-26T11:28:04;99428.38;;;9.35;87.45
4576;BME280;2300;51.874;8.430;2023-03-26T11:30:39;99434.88;;;9.29;87.02
4576;BME280;2300;51.874;8.430;2023-03-26T11:33:12;99428.06;;;9.53;87.69
4576;BME280;2300;51.874;8.430;2023-03-26T11:35:45;99420.66;;;9.54;87.79
4576;BME280;2300;51.874;8.430;2023-03-26T11:38:15;99428.06;;;9.80;87.59
4576;BME280;2300;51.874;8.430;2023-03-26T11:40:45;99427.44;;;9.95;88.03
4576;BME280;2300;51.874;8.430;2023-03-26T11:43:18;99425.25;;;9.97;88.10
4576;BME280;2300;51.874;8.430;2023-03-26T11:45:47;99432.53;;;10.13;89.18
4576;BME280;2300;51.874;8.430;2023-03-26T11:48:17;99426.34;;;10.23;88.82
4576;BME280;2300;51.874;8.430;2023-03-26T11:50:53;99417.09;;;10.29;88.81
4576;BME280;2300;51.874;8.430;2023-03-26T11:53:26;99415.72;;;10.31;87.30
4576;BME280;2300;51.874;8.430;2023-03-26T11:55:57;99416.34;;;10.38;87.67
4576;BME280;2300;51.874;8.430;2023-03-26T11:58:28;99418.50;;;10.36;87.03
4576;BME280;2300;51.874;8.430;2023-03-26T12:01:03;99381.06;;;9.93;89.01
4576;BME280;2300;51.874;8.430;2023-03-26T12:03:31;99420.09;;;10.27;89.41
4576;BME280;2300;51.874;8.430;2023-03-26T12:05:59;99414.22;;;10.19;88.48
4576;BME280;2300;51.874;8.430;2023-03-26T12:08:30;99418.25;;;10.11;89.73
4576;BME280;2300;51.874;8.430;2023-03-26T12:11:01;99410.34;;;10.15;89.30
4576;BME280;2300;51.874;8.430;2023-03-26T12:13:34;99408.88;;;10.07;90.27
4576;BME280;2300;51.874;8.430;2023-03-26T12:16:09;99407.75;;;10.03;91.34
4576;BME280;2300;51.874;8.430;2023-03-26T12:18:38;99410.59;;;10.13;91.15
4576;BME280;2300;51.874;8.430;2023-03-26T12:21:16;99410.94;;;10.22;92.01
4576;BME280;2300;51.874;8.430;2023-03-26T12:23:52;99403.81;;;10.21;90.62
4576;BME280;2300;51.874;8.430;2023-03-26T12:26:29;99403.81;;;10.21;92.46
4576;BME280;2300;51.874;8.430;2023-03-26T12:29:05;99403.41;;;10.07;93.26
4576;BME280;2300;51.874;8.430;2023-03-26T12:31:41;99392.22;;;10.14;93.55
4576;BME280;2300;51.874;8.430;2023-03-26T12:34:15;99393.91;;;10.15;94.67
4576;BME280;2300;51.874;8.430;2023-03-26T12:36:50;99400.31;;;9.72;93.70
4576;BME280;2300;51.874;8.430;2023-03-26T12:39:28;99404.91;;;9.93;94.10
4576;BME280;2300;51.874;8.430;2023-03-26T12:41:57;99384.50;;;9.79;91.94
4576;BME280;2300;51.874;8.430;2023-03-26T12:44:27;99392.75;;;9.57;91.37
4576;BME280;2300;51.874;8.430;2023-03-26T12:47:07;99390.38;;;9.44;90.06
4576;BME280;2300;51.874;8.430;2023-03-26T12:49:34;99397.66;;;9.33;88.73
4576;BME280;2300;51.874;8.430;2023-03-26T12:52:13;99392.38;;;9.27;89.41
4576;BME280;2300;51.874;8.430;2023-03-26T12:54:49;99401.03;;;9.40;90.08
4576;BME280;2300;51.874;8.430;2023-03-26T12:57:21;99397.47;;;9.62;91.10
4576;BME280;2300;51.874;8.430;2023-03-26T13:00:02;99398.75;;;9.81;91.55
4576;BME280;2300;51.874;8.430;2023-03-26T13:03:09;99400.88;;;10.00;90.66
4576;BME280;2300;51.874;8.430;2023-03-26T13:05:49;99400.91;;;10.06;86.16
4576;BME280;2300;51.874;8.430;2023-03-26T13:08:44;99397.31;;;10.00;86.22
4576;BME280;2300;51.874;8.430;2023-03-26T13:11:21;99399.94;;;9.90;85.08
4576;BME280;2300;51.874;8.430;2023-03-26T13:14:24;99398.09;;;9.69;85.60
4576;BME280;2300;51.874;8.430;2023-03-26T13:17:01;99387.97;;;9.47;86.85
4576;BME280;2300;51.874;8.430;2023-03-26T13:19:34;99396.69;;;9.44;87.82
4576;BME280;2300;51.874;8.430;2023-03-26T13:22:13;99376.56;;;9.34;88.00
4576;BME280;2300;51.874;8.430;2023-03-26T13:24:51;99397.97;;;9.58;88.32
4576;BME280;2300;51.874;8.430;2023-03-26T13:27:31;99390.97;;;9.46;88.95
4576;BME280;2300;51.874;8.430;2023-03-26T13:30:04;99386.69;;;9.33;89.11
4576;BME280;2300;51.874;8.430;2023-03-26T13:32:46;99392.94;;;9.50;89.92
4576;BME280;2300;51.874;8.430;2023-03-26T13:35:21;99386.31;;;9.46;89.93
4576;BME280;2300;51.874;8.430;2023-03-26T13:37:54;99393.06;;;9.61;89.44
4576;BME280;2300;51.874;8.430;2023-03-26T13:40:33;99382.56;;;9.52;90.27
4576;BME280;2300;51.874;8.430;2023-03-26T13:43:11;99377.75;;;9.65;90.63
4576;BME280;2300;51.874;8.430;2023-03-26T13:45:52;99384.69;;;9.72;89.14
4576;BME280;2300;51.874;8.430;2023-03-26T13:48:23;99382.22;;;9.49;88.83
4576;BME280;2300;51.874;8.430;2023-03-26T13:50:58;99380.31;;;9.49;89.89
4576;BME280;2300;51.874;8.430;2023-03-26T13:53:28;99379.66;;;9.37;88.63
4576;BME280;2300;51.874;8.430;2023-03-26T13:55:59;99377.41;;;9.34;89.94
4576;BME280;2300;51.874;8.430;2023-03-26T13:58:31;99382.56;;;9.31;90.00
4576;BME280;2300;51.874;8.430;2023-03-26T14:01:03;99378.41;;;9.28;90.20
4576;BME280;2300;51.874;8.430;2023-03-26T14:03:40;99381.22;;;9.33;90.06
4576;BME280;2300;51.874;8.430;2023-03-26T14:06:15;99383.47;;;9.36;89.90
4576;BME280;2300;51.874;8.430;2023-03-26T14:08:46;99382.25;;;9.27;88.87
4576;BME280;2300;51.874;8.430;2023-03-26T14:11:20;99379.59;;;9.32;89.56
4576;BME280;2300;51.874;8.430;2023-03-26T14:13:54;99378.00;;;9.36;89.90
4576;BME280;2300;51.874;8.430;2023-03-26T14:16:27;99380.06;;;9.29;89.13
4576;BME280;2300;51.874;8.430;2023-03-26T14:19:01;99371.63;;;9.31;89.82